createdAt,value
2018-06-13T00:01:37.357Z,74.28
2018-06-13T00:04:06.295Z,73.37
2018-06-13T00:06:35.063Z,75.58
2018-06-13T00:09:04.158Z,71.87
2018-06-13T00:11:32.869Z,70.44
2018-06-13T00:14:01.715Z,73.68
2018-06-13T00:16:30.409Z,77.31
2018-06-13T00:18:59.330Z,78.25
2018-06-13T00:21:28.101Z,78.97
2018-06-13T00:23:56.819Z,78.96
2018-06-13T00:26:25.533Z,78.99
2018-06-13T00:28:54.459Z,80.56
2018-06-13T00:31:23.194Z,82.07
2018-06-13T00:33:51.922Z,83.47
2018-06-13T00:36:20.690Z,82.77
2018-06-13T00:38:49.404Z,83.54
2018-06-13T00:41:18.177Z,83.46
2018-06-13T00:43:46.927Z,84.17
2018-06-13T00:46:15.622Z,84.85
2018-06-13T00:48:44.337Z,85.41
2018-06-13T00:51:13.245Z,82.21
2018-06-13T00:53:41.937Z,81.67
2018-06-13T00:56:21.764Z,79.48
2018-06-13T00:58:50.466Z,79.11
2018-06-13T01:01:19.183Z,78.00
2018-06-13T01:03:47.931Z,78.81
2018-06-13T01:06:16.673Z,77.06
2018-06-13T01:08:45.399Z,76.72
2018-06-13T01:11:14.121Z,76.35
2018-06-13T01:13:42.833Z,77.07
2018-06-13T01:16:11.606Z,77.41
2018-06-13T01:18:40.349Z,76.96
2018-06-13T01:21:09.063Z,78.83
2018-06-13T01:23:37.801Z,78.72
2018-06-13T01:26:06.531Z,81.65
2018-06-13T01:28:35.254Z,83.75
2018-06-13T01:31:04.168Z,83.46
2018-06-13T01:33:32.923Z,79.11
2018-06-13T01:36:01.633Z,82.66
2018-06-13T01:38:30.371Z,83.47
2018-06-13T01:40:59.226Z,83.30
2018-06-13T01:43:27.956Z,77.21
2018-06-13T01:45:56.754Z,76.40
2018-06-13T01:48:25.549Z,78.11
2018-06-13T01:50:56.892Z,78.56
2018-06-13T01:53:25.797Z,76.98
2018-06-13T01:55:54.501Z,76.16
2018-06-13T01:58:23.251Z,77.15
2018-06-13T02:00:51.998Z,76.57
2018-06-13T02:03:20.716Z,76.16
2018-06-13T02:05:49.417Z,76.19
2018-06-13T02:08:18.182Z,77.38
2018-06-13T02:10:46.882Z,77.22
2018-06-13T02:13:15.558Z,76.42
2018-06-13T02:15:44.274Z,77.98
2018-06-13T02:18:12.978Z,78.59
2018-06-13T02:20:41.668Z,79.68
2018-06-13T02:23:10.377Z,77.54
2018-06-13T02:25:39.061Z,78.16
2018-06-13T02:28:07.790Z,78.56
2018-06-13T02:30:36.522Z,78.59
2018-06-13T02:33:05.232Z,77.37
2018-06-13T02:35:34.153Z,76.49
2018-06-13T02:38:02.889Z,78.34
2018-06-13T02:40:31.568Z,76.64
2018-06-13T02:43:00.262Z,77.96
2018-06-13T02:45:29.162Z,79.06
2018-06-13T02:47:57.861Z,76.91
2018-06-13T02:50:26.566Z,81.04
2018-06-13T02:52:55.305Z,80.61
2018-06-13T02:55:24.030Z,79.21
2018-06-13T02:57:52.761Z,78.88
2018-06-13T03:00:21.503Z,79.82
2018-06-13T03:02:50.226Z,80.10
2018-06-13T03:05:18.947Z,76.65
2018-06-13T03:07:47.701Z,78.18
2018-06-13T03:10:16.406Z,79.15
2018-06-13T03:12:45.113Z,78.88
2018-06-13T03:15:13.861Z,80.81
2018-06-13T03:17:42.560Z,80.69
2018-06-13T03:20:11.302Z,78.72
2018-06-13T03:22:40.047Z,79.46
2018-06-13T03:25:08.914Z,78.03
2018-06-13T03:27:37.606Z,79.75
2018-06-13T03:30:06.330Z,78.78
2018-06-13T03:32:35.021Z,77.62
2018-06-13T03:35:03.717Z,71.32
2018-06-13T03:37:32.496Z,63.87
2018-06-13T03:40:01.211Z,59.92
2018-06-13T03:42:29.919Z,57.83
2018-06-13T03:44:58.650Z,54.45
2018-06-13T03:47:27.362Z,52.85
2018-06-13T03:49:56.054Z,51.08
2018-06-13T03:52:24.765Z,48.23
2018-06-13T03:54:53.686Z,46.38
2018-06-13T03:57:22.489Z,46.53
2018-06-13T03:59:51.245Z,44.13
2018-06-13T04:02:19.937Z,42.55
2018-06-13T04:04:48.700Z,41.26
2018-06-13T04:07:17.845Z,40.97
2018-06-13T04:09:46.526Z,38.60
2018-06-13T04:12:15.220Z,37.26
2018-06-13T04:14:43.949Z,36.04
2018-06-13T04:17:12.649Z,35.12
2018-06-13T04:19:41.349Z,34.77
2018-06-13T04:22:10.160Z,34.77
2018-06-13T04:24:39.008Z,34.26
2018-06-13T04:27:07.766Z,32.71
2018-06-13T04:29:36.485Z,31.52
2018-06-13T04:32:05.249Z,30.94
2018-06-13T04:34:34.085Z,30.92
2018-06-13T04:37:02.854Z,30.89
2018-06-13T04:39:31.558Z,31.40
2018-06-13T04:42:00.292Z,30.99
2018-06-13T04:44:29.025Z,31.06
2018-06-13T04:46:57.720Z,30.13
2018-06-13T04:49:26.415Z,29.66
2018-06-13T04:51:55.273Z,29.72
2018-06-13T04:54:24.006Z,27.83
2018-06-13T04:56:52.718Z,27.67
2018-06-13T04:59:21.443Z,28.75
2018-06-13T05:01:50.161Z,28.07
2018-06-13T05:04:18.862Z,27.71
2018-06-13T05:06:47.621Z,26.74
2018-06-13T05:09:16.321Z,27.48
2018-06-13T05:11:45.040Z,27.44
2018-06-13T05:14:13.777Z,28.06
2018-06-13T05:16:42.549Z,27.83
2018-06-13T05:19:11.223Z,26.95
2018-06-13T05:21:40.067Z,25.93
2018-06-13T05:24:08.759Z,23.50
2018-06-13T05:26:37.487Z,24.25
2018-06-13T05:29:06.239Z,23.74
2018-06-13T05:31:34.933Z,22.92
2018-06-13T05:34:03.622Z,24.37
2018-06-13T05:36:32.345Z,24.32
2018-06-13T05:39:01.029Z,26.89
2018-06-13T05:41:29.714Z,25.86
2018-06-13T05:43:58.604Z,25.55
2018-06-13T05:46:27.298Z,24.21
2018-06-13T05:48:56.132Z,24.87
2018-06-13T05:51:24.871Z,24.64
2018-06-13T05:53:53.571Z,24.30
2018-06-13T05:56:22.268Z,25.02
2018-06-13T05:58:51.030Z,25.30
2018-06-13T06:01:19.764Z,23.88
2018-06-13T06:03:48.487Z,23.90
2018-06-13T06:06:17.265Z,22.86
2018-06-13T06:08:45.977Z,21.81
2018-06-13T06:11:14.675Z,22.36
2018-06-13T06:13:43.430Z,22.19
2018-06-13T06:16:12.127Z,21.91
2018-06-13T06:18:40.814Z,22.06
2018-06-13T06:21:09.524Z,21.29
2018-06-13T06:23:38.272Z,21.20
2018-06-13T06:26:06.953Z,21.17
2018-06-13T06:28:35.692Z,22.92
2018-06-13T06:31:04.386Z,22.24
2018-06-13T06:33:33.106Z,21.01
2018-06-13T06:36:01.833Z,20.03
2018-06-13T06:38:30.918Z,19.97
2018-06-13T06:40:59.605Z,18.90
2018-06-13T06:43:28.505Z,19.55
2018-06-13T06:45:57.203Z,19.74
2018-06-13T06:48:25.913Z,20.80
2018-06-13T06:50:54.709Z,19.80
2018-06-13T06:53:23.446Z,19.16
2018-06-13T06:55:52.149Z,20.99
2018-06-13T06:58:21.094Z,23.68
2018-06-13T07:00:49.808Z,22.77
2018-06-13T07:03:18.515Z,21.52
2018-06-13T07:05:47.263Z,20.28
2018-06-13T07:08:15.952Z,22.28
2018-06-13T07:10:44.637Z,21.39
2018-06-13T07:13:13.370Z,20.34
2018-06-13T07:15:42.069Z,19.51
2018-06-13T07:18:10.764Z,20.59
2018-06-13T07:20:39.666Z,20.17
2018-06-13T07:23:08.358Z,19.89
2018-06-13T07:25:37.048Z,19.26
2018-06-13T07:28:05.779Z,20.40
2018-06-13T07:30:34.597Z,19.30
2018-06-13T07:33:03.668Z,18.97
2018-06-13T07:35:32.618Z,18.02
2018-06-13T07:38:01.310Z,19.18
2018-06-13T07:40:30.008Z,19.17
2018-06-13T07:42:58.746Z,20.09
2018-06-13T07:45:27.460Z,21.06
2018-06-13T07:47:56.202Z,20.42
2018-06-13T07:50:24.977Z,19.34
2018-06-13T07:52:53.670Z,19.08
2018-06-13T07:55:22.373Z,19.50
2018-06-13T07:57:51.125Z,20.12
2018-06-13T08:00:19.824Z,19.72
2018-06-13T08:02:48.522Z,20.19
2018-06-13T08:05:17.270Z,19.36
2018-06-13T08:07:45.979Z,18.26
2018-06-13T08:10:14.808Z,17.87
2018-06-13T08:12:43.551Z,19.52
2018-06-13T08:15:12.259Z,18.03
2018-06-13T08:17:40.944Z,18.01
2018-06-13T08:20:09.723Z,20.47
2018-06-13T08:22:38.490Z,20.29
2018-06-13T08:25:07.185Z,19.43
2018-06-13T08:27:41.727Z,19.62
2018-06-13T08:30:10.932Z,18.49
2018-06-13T08:32:39.622Z,18.56
2018-06-13T08:35:08.407Z,17.89
2018-06-13T08:37:37.098Z,17.89
2018-06-13T08:40:06.219Z,18.14
2018-06-13T08:42:34.974Z,19.57
2018-06-13T08:45:03.753Z,19.44
2018-06-13T08:47:32.494Z,19.63
2018-06-13T08:50:01.342Z,17.79
2018-06-13T08:52:30.090Z,16.51
2018-06-13T08:54:59.689Z,18.36
2018-06-13T08:57:28.526Z,18.45
2018-06-13T08:59:57.247Z,18.88
2018-06-13T09:02:26.026Z,18.95
2018-06-13T09:04:54.861Z,19.72
2018-06-13T09:07:23.560Z,19.65
2018-06-13T09:09:52.298Z,19.25
2018-06-13T09:12:21.049Z,18.38
2018-06-13T09:14:49.767Z,18.72
2018-06-13T09:17:18.466Z,18.84
2018-06-13T09:19:47.211Z,19.41
2018-06-13T09:22:15.973Z,20.41
2018-06-13T09:24:44.748Z,19.91
2018-06-13T09:27:13.506Z,20.42
2018-06-13T09:29:42.218Z,18.90
2018-06-13T09:32:10.918Z,20.17
2018-06-13T09:34:39.645Z,18.15
2018-06-13T09:37:08.391Z,16.35
2018-06-13T09:39:37.102Z,16.60
2018-06-13T09:42:05.851Z,17.17
2018-06-13T09:44:34.587Z,17.49
2018-06-13T09:47:06.907Z,16.17
2018-06-13T09:49:32.161Z,16.68
2018-06-13T09:52:00.891Z,17.74
2018-06-13T09:54:29.651Z,19.74
2018-06-13T09:56:58.454Z,19.13
2018-06-13T09:59:31.250Z,18.85
2018-06-13T10:02:05.378Z,18.79
2018-06-13T10:04:34.303Z,19.35
2018-06-13T10:07:03.109Z,20.95
2018-06-13T10:09:31.847Z,23.54
2018-06-13T10:12:00.560Z,23.15
2018-06-13T10:14:29.253Z,22.72
2018-06-13T10:16:57.987Z,22.20
2018-06-13T10:19:26.724Z,22.22
2018-06-13T10:21:55.447Z,21.56
2018-06-13T10:24:24.207Z,20.24
2018-06-13T10:26:52.930Z,19.98
2018-06-13T10:29:21.686Z,20.11
2018-06-13T10:31:50.439Z,19.61
2018-06-13T10:34:19.178Z,18.62
2018-06-13T10:36:47.887Z,17.88
2018-06-13T10:39:16.625Z,18.63
2018-06-13T10:41:45.365Z,19.89
2018-06-13T10:44:14.072Z,19.45
2018-06-13T10:46:42.806Z,20.55
2018-06-13T10:49:11.761Z,21.35
2018-06-13T10:51:40.466Z,22.31
2018-06-13T10:54:09.203Z,22.39
2018-06-13T10:56:38.077Z,23.20
2018-06-13T10:59:06.794Z,22.37
2018-06-13T11:01:35.563Z,22.52
2018-06-13T11:04:04.317Z,23.73
2018-06-13T11:06:33.199Z,25.00
2018-06-13T11:09:02.126Z,24.23
2018-06-13T11:11:30.993Z,23.21
2018-06-13T11:13:59.682Z,24.58
2018-06-13T11:16:28.401Z,22.86
2018-06-13T11:18:57.114Z,24.78
2018-06-13T11:21:25.835Z,26.33
2018-06-13T11:23:54.567Z,27.03
2018-06-13T11:26:23.276Z,26.39
2018-06-13T11:28:51.985Z,23.77
2018-06-13T11:31:20.728Z,23.55
2018-06-13T11:33:49.449Z,25.30
2018-06-13T11:36:18.165Z,22.18
2018-06-13T11:38:47.040Z,21.27
2018-06-13T11:41:15.781Z,20.43
2018-06-13T11:43:44.489Z,19.50
2018-06-13T11:46:13.220Z,19.51
2018-06-13T11:48:41.961Z,19.55
2018-06-13T11:51:10.666Z,18.95
2018-06-13T11:53:39.436Z,19.68
2018-06-13T11:56:08.189Z,20.23
2018-06-13T11:58:36.902Z,20.11
2018-06-13T12:01:05.657Z,18.89
2018-06-13T12:03:34.364Z,18.63
2018-06-13T12:06:03.161Z,18.79
2018-06-13T12:08:31.889Z,20.06
2018-06-13T12:11:00.694Z,19.95
2018-06-13T12:13:29.422Z,20.66
2018-06-13T12:15:58.205Z,20.18
2018-06-13T12:18:27.075Z,20.75
2018-06-13T12:20:55.966Z,21.24
2018-06-13T12:23:24.749Z,22.36
2018-06-13T12:25:53.538Z,23.72
2018-06-13T12:28:22.230Z,26.22
2018-06-13T12:30:50.968Z,27.15
2018-06-13T12:33:19.669Z,27.23
2018-06-13T12:35:48.510Z,27.16
2018-06-13T12:38:17.270Z,27.31
2018-06-13T12:40:46.024Z,27.16
2018-06-13T12:43:14.968Z,28.15
2018-06-13T12:45:43.832Z,28.68
2018-06-13T12:48:12.645Z,28.04
2018-06-13T12:50:42.167Z,28.94
2018-06-13T12:53:11.165Z,29.84
2018-06-13T12:55:39.912Z,29.29
2018-06-13T12:58:08.754Z,29.47
2018-06-13T13:00:37.573Z,29.33
2018-06-13T13:03:06.390Z,28.98
2018-06-13T13:05:35.148Z,29.43
2018-06-13T13:08:03.890Z,30.66
2018-06-13T13:10:32.771Z,29.81
2018-06-13T13:13:01.554Z,30.30
2018-06-13T13:15:30.381Z,30.67
2018-06-13T13:17:59.319Z,29.91
2018-06-13T13:20:28.106Z,30.24
2018-06-13T13:22:56.862Z,29.19
2018-06-13T13:25:25.597Z,31.41
2018-06-13T13:27:54.397Z,30.75
2018-06-13T13:30:23.274Z,30.03
2018-06-13T13:32:52.010Z,29.32
2018-06-13T13:35:20.736Z,28.16
2018-06-13T13:37:49.482Z,29.24
2018-06-13T13:40:18.643Z,29.23
2018-06-13T13:42:48.036Z,29.20
2018-06-13T13:45:16.817Z,28.90
2018-06-13T13:47:45.918Z,30.02
2018-06-13T13:50:14.648Z,28.95
2018-06-13T13:52:43.518Z,29.04
2018-06-13T13:55:12.332Z,29.83
2018-06-13T13:57:41.066Z,28.69
2018-06-13T14:00:09.992Z,29.78
2018-06-13T14:02:38.785Z,29.02
2018-06-13T14:05:07.608Z,27.93
2018-06-13T14:07:36.434Z,28.21
2018-06-13T14:10:05.580Z,28.87
2018-06-13T14:12:34.492Z,29.10
2018-06-13T14:15:03.488Z,30.72
2018-06-13T14:17:32.524Z,30.91
2018-06-13T14:20:01.267Z,30.82
2018-06-13T14:22:30.171Z,31.67
2018-06-13T14:24:58.789Z,31.29
2018-06-13T14:27:27.510Z,31.80
2018-06-13T14:29:56.304Z,32.33
2018-06-13T14:32:25.069Z,30.93
2018-06-13T14:34:53.819Z,32.46
2018-06-13T14:37:22.640Z,31.90
2018-06-13T14:39:51.376Z,32.03
2018-06-13T14:42:20.165Z,32.19
2018-06-13T14:44:48.985Z,32.19
2018-06-13T14:47:17.710Z,32.46
2018-06-13T14:49:46.450Z,32.69
2018-06-13T14:52:15.258Z,32.23
2018-06-13T14:54:43.997Z,33.11
2018-06-13T14:57:12.781Z,32.61
2018-06-13T14:59:41.597Z,33.97
2018-06-13T15:02:10.314Z,32.85
2018-06-13T15:04:39.040Z,32.43
2018-06-13T15:07:07.806Z,32.76
2018-06-13T15:09:36.554Z,32.90
2018-06-13T15:12:05.311Z,31.52
2018-06-13T15:14:34.070Z,30.69
2018-06-13T15:17:02.786Z,30.76
2018-06-13T15:19:31.515Z,31.38
2018-06-13T15:22:01.505Z,31.82
2018-06-13T15:24:30.437Z,31.88
2018-06-13T15:26:59.140Z,32.10
2018-06-13T15:29:27.892Z,32.17
2018-06-13T15:31:56.604Z,32.65
2018-06-13T15:34:25.338Z,32.50
2018-06-13T15:36:54.118Z,32.59
2018-06-13T15:39:22.869Z,33.11
2018-06-13T15:41:51.619Z,33.71
2018-06-13T15:44:20.380Z,34.17
2018-06-13T15:46:49.081Z,34.41
2018-06-13T15:49:17.816Z,35.00
2018-06-13T15:51:46.549Z,35.15
2018-06-13T15:54:15.292Z,36.06
2018-06-13T15:56:44.219Z,35.04
2018-06-13T15:59:12.959Z,36.15
2018-06-13T16:01:41.693Z,35.99
2018-06-13T16:04:10.446Z,37.87
2018-06-13T16:06:39.275Z,37.23
2018-06-13T16:09:09.949Z,38.32
2018-06-13T16:11:38.723Z,37.31
2018-06-13T16:14:07.491Z,39.71
2018-06-13T16:16:36.266Z,39.81
2018-06-13T16:19:05.366Z,38.69
2018-06-13T16:21:34.141Z,39.22
2018-06-13T16:24:02.954Z,38.37
2018-06-13T16:26:31.711Z,38.92
2018-06-13T16:29:00.456Z,40.36
2018-06-13T16:31:29.267Z,41.44
2018-06-13T16:33:58.014Z,39.91
2018-06-13T16:36:26.811Z,41.47
2018-06-13T16:38:55.569Z,42.17
2018-06-13T16:41:24.348Z,42.09
2018-06-13T16:43:53.154Z,42.17
2018-06-13T16:46:21.942Z,42.83
2018-06-13T16:48:50.687Z,44.31
2018-06-13T16:51:30.617Z,45.43
2018-06-13T16:54:12.633Z,47.19
2018-06-13T16:56:41.964Z,47.94
2018-06-13T16:59:10.741Z,50.25
2018-06-13T17:01:39.594Z,52.70
2018-06-13T17:04:08.431Z,52.64
2018-06-13T17:06:37.315Z,53.81
2018-06-13T17:09:07.490Z,54.80
2018-06-13T17:11:36.418Z,54.91
2018-06-13T17:14:05.166Z,56.47
2018-06-13T17:16:33.901Z,56.78
2018-06-13T17:19:04.177Z,57.48
2018-06-13T17:21:33.000Z,56.50
2018-06-13T17:24:01.747Z,57.41
2018-06-13T17:26:30.520Z,57.99
2018-06-13T17:28:59.281Z,59.02
2018-06-13T17:31:28.168Z,61.01
2018-06-13T17:33:56.943Z,61.68
2018-06-13T17:36:25.868Z,62.45
2018-06-13T17:38:54.591Z,62.05
2018-06-13T17:41:23.352Z,59.39
2018-06-13T17:43:52.114Z,59.19
2018-06-13T17:46:20.875Z,59.25
2018-06-13T17:48:49.639Z,60.02
2018-06-13T17:51:18.489Z,60.35
2018-06-13T17:53:47.217Z,61.48
2018-06-13T17:56:15.988Z,62.10
2018-06-13T17:58:44.797Z,63.52
2018-06-13T18:01:13.560Z,64.15
2018-06-13T18:03:42.341Z,66.42
2018-06-13T18:06:11.151Z,67.49
2018-06-13T18:08:39.922Z,66.86
2018-06-13T18:11:08.642Z,66.63
2018-06-13T18:13:37.488Z,68.33
2018-06-13T18:16:06.240Z,68.70
2018-06-13T18:18:35.003Z,70.13
2018-06-13T18:21:03.837Z,70.12
2018-06-13T18:23:32.698Z,70.14
2018-06-13T18:26:01.454Z,72.20
2018-06-13T18:28:30.263Z,70.90
2018-06-13T18:30:59.025Z,72.75
2018-06-13T18:33:27.763Z,72.35
2018-06-13T18:35:56.515Z,73.41
2018-06-13T18:38:25.265Z,72.30
2018-06-13T18:40:54.009Z,70.83
2018-06-13T18:43:22.782Z,70.33
2018-06-13T18:45:51.518Z,69.99
2018-06-13T18:48:20.259Z,70.45
2018-06-13T18:50:49.013Z,71.61
2018-06-13T18:53:17.839Z,74.01
2018-06-13T18:55:46.546Z,74.46
2018-06-13T18:58:15.445Z,74.60
2018-06-13T19:00:44.266Z,74.50
2018-06-13T19:03:12.973Z,73.57
2018-06-13T19:05:41.740Z,73.65
2018-06-13T19:08:10.529Z,73.44
2018-06-13T19:10:39.233Z,74.84
2018-06-13T19:13:08.050Z,73.42
2018-06-13T19:15:36.763Z,73.01
2018-06-13T19:18:05.501Z,73.60
2018-06-13T19:20:34.423Z,75.02
2018-06-13T19:23:03.164Z,74.17
2018-06-13T19:25:32.017Z,75.50
2018-06-13T19:28:01.353Z,77.51
2018-06-13T19:30:30.115Z,74.11
2018-06-13T19:32:58.887Z,75.38
2018-06-13T19:35:27.649Z,74.22
2018-06-13T19:37:56.491Z,75.70
2018-06-13T19:40:25.206Z,75.25
2018-06-13T19:42:53.983Z,76.35
2018-06-13T19:45:22.711Z,74.74
2018-06-13T19:47:56.603Z,76.06
2018-06-13T19:50:25.299Z,72.54
2018-06-13T19:52:59.157Z,73.18
2018-06-13T19:55:32.991Z,71.91
2018-06-13T19:58:01.910Z,71.31
2018-06-13T20:00:30.652Z,70.03
2018-06-13T20:03:04.688Z,68.36
2018-06-13T20:05:38.464Z,69.33
2018-06-13T20:08:07.326Z,69.17
2018-06-13T20:10:36.025Z,69.25
2018-06-13T20:13:09.853Z,72.17
2018-06-13T20:15:43.884Z,73.67
2018-06-13T20:18:17.783Z,74.79
2018-06-13T20:20:46.548Z,72.68
2018-06-13T20:23:15.281Z,72.55
2018-06-13T20:25:49.219Z,72.49
2018-06-13T20:28:23.198Z,70.61
2018-06-13T20:30:57.121Z,70.67
2018-06-13T20:33:25.838Z,71.37
2018-06-13T20:35:55.096Z,72.37
2018-06-13T20:38:23.864Z,72.98
2018-06-13T20:40:52.579Z,77.91
2018-06-13T20:43:21.362Z,79.75
2018-06-13T20:45:50.112Z,75.69
2018-06-13T20:48:18.875Z,68.07
2018-06-13T20:50:47.634Z,67.47
2018-06-13T20:53:16.385Z,66.39
2018-06-13T20:55:45.155Z,65.92
2018-06-13T20:58:13.919Z,65.46
2018-06-13T21:00:42.796Z,63.48
2018-06-13T21:03:11.502Z,63.61
2018-06-13T21:05:40.318Z,62.58
2018-06-13T21:08:09.199Z,61.40
2018-06-13T21:10:37.912Z,62.11
2018-06-13T21:13:06.651Z,62.26
2018-06-13T21:15:35.450Z,62.07
2018-06-13T21:18:04.446Z,63.38
2018-06-13T21:20:33.499Z,62.74
2018-06-13T21:23:02.291Z,63.20
2018-06-13T21:25:31.111Z,64.67
2018-06-13T21:27:59.883Z,65.81
2018-06-13T21:30:28.634Z,67.30
2018-06-13T21:32:57.399Z,68.46
2018-06-13T21:35:26.147Z,69.60
2018-06-13T21:37:54.909Z,70.80
2018-06-13T21:40:23.627Z,70.56
2018-06-13T21:42:52.355Z,70.97
2018-06-13T21:45:21.119Z,70.64
2018-06-13T21:47:49.809Z,71.11
2018-06-13T21:50:18.518Z,72.07
2018-06-13T21:52:47.297Z,72.51
2018-06-13T21:55:16.013Z,72.50
2018-06-13T21:57:44.774Z,73.60
2018-06-13T22:00:13.541Z,73.50
2018-06-13T22:02:42.452Z,72.86
2018-06-13T22:05:11.199Z,74.04
2018-06-13T22:07:40.025Z,73.55
2018-06-13T22:10:08.820Z,73.92
2018-06-13T22:12:37.627Z,74.26
2018-06-13T22:15:11.375Z,72.97
2018-06-13T22:17:40.127Z,74.43
2018-06-13T22:20:08.867Z,74.45
2018-06-13T22:22:37.766Z,73.98
2018-06-13T22:25:06.578Z,73.71
2018-06-13T22:27:35.293Z,73.04
2018-06-13T22:30:04.087Z,73.37
2018-06-13T22:32:32.837Z,74.77
2018-06-13T22:35:01.610Z,73.92
2018-06-13T22:37:30.392Z,74.24
2018-06-13T22:39:59.155Z,73.72
2018-06-13T22:42:27.891Z,73.90
2018-06-13T22:44:56.734Z,74.40
2018-06-13T22:47:25.583Z,75.63
2018-06-13T22:49:54.330Z,74.88
2018-06-13T22:52:23.186Z,74.43
2018-06-13T22:54:51.901Z,76.27
2018-06-13T22:57:20.631Z,76.11
2018-06-13T22:59:49.391Z,76.15
2018-06-13T23:02:18.174Z,75.96
2018-06-13T23:04:46.894Z,76.03
2018-06-13T23:07:15.643Z,77.16
2018-06-13T23:09:44.404Z,76.69
2018-06-13T23:12:13.122Z,78.21
2018-06-13T23:14:41.875Z,77.86
2018-06-13T23:17:10.703Z,77.49
2018-06-13T23:19:39.454Z,76.31
2018-06-13T23:22:08.226Z,76.41
2018-06-13T23:24:36.986Z,76.65
2018-06-13T23:27:05.791Z,77.10
2018-06-13T23:29:34.566Z,77.09
2018-06-13T23:32:03.303Z,78.05
2018-06-13T23:34:32.022Z,77.69
2018-06-13T23:37:00.767Z,78.83
2018-06-13T23:39:29.467Z,79.40
2018-06-13T23:41:58.196Z,78.19
2018-06-13T23:44:26.962Z,77.86
2018-06-13T23:46:55.694Z,77.03
2018-06-13T23:49:24.409Z,77.87
2018-06-13T23:51:53.176Z,78.42
2018-06-13T23:54:21.902Z,78.50
2018-06-13T23:56:50.654Z,79.47
2018-06-13T23:59:19.428Z,79.70
